createdAt,value
2022-09-26T00:01:31.809Z,100631.84
2022-09-26T00:04:02.565Z,100629.25
2022-09-26T00:06:31.747Z,100626.50
2022-09-26T00:09:00.032Z,100620.31
2022-09-26T00:11:29.685Z,100617.56
2022-09-26T00:14:00.287Z,100613.78
2022-09-26T00:16:28.274Z,100605.88
2022-09-26T00:18:57.779Z,100602.09
2022-09-26T00:21:27.604Z,100602.09
2022-09-26T00:23:57.071Z,100592.97
2022-09-26T00:26:26.641Z,100591.25
2022-09-26T00:28:56.411Z,100582.28
2022-09-26T00:31:26.913Z,100564.94
2022-09-26T00:33:57.673Z,100558.03
2022-09-26T00:36:36.966Z,100557.34
2022-09-26T00:39:08.321Z,100556.47
2022-09-26T00:41:37.159Z,100554.00
2022-09-26T00:44:25.489Z,100558.81
2022-09-26T00:46:53.579Z,100558.25
2022-09-26T00:49:26.046Z,100550.72
2022-09-26T00:51:58.507Z,100552.06
2022-09-26T00:54:30.740Z,100542.94
2022-09-26T00:57:04.462Z,100544.81
2022-09-26T00:59:35.341Z,100543.81
2022-09-26T01:02:04.442Z,100536.41
2022-09-26T01:04:35.676Z,100537.84
2022-09-26T01:07:09.441Z,100539.56
2022-09-26T01:09:39.236Z,100537.69
2022-09-26T01:12:08.813Z,100520.13
2022-09-26T01:14:40.282Z,100521.75
2022-09-26T01:17:09.479Z,100511.59
2022-09-26T01:19:47.139Z,100522.09
2022-09-26T01:22:41.601Z,100507.53
2022-09-26T01:25:22.630Z,100498.06
2022-09-26T01:28:19.202Z,100502.69
2022-09-26T01:30:53.959Z,100502.38
2022-09-26T01:33:40.530Z,100498.47
2022-09-26T01:36:37.017Z,100492.09
2022-09-26T01:39:21.377Z,100487.28
2022-09-26T01:41:58.985Z,100487.28
2022-09-26T01:44:33.997Z,100486.09
2022-09-26T01:47:12.106Z,100478.69
2022-09-26T01:49:53.195Z,100475.94
2022-09-26T01:52:29.146Z,100473.19
2022-09-26T01:55:04.604Z,100477.69
2022-09-26T01:57:38.913Z,100469.44
2022-09-26T02:00:12.489Z,100466.69
2022-09-26T02:02:47.248Z,100470.28
2022-09-26T02:05:21.553Z,100461.19
2022-09-26T02:07:54.814Z,100457.41
2022-09-26T02:10:28.592Z,100462.03
2022-09-26T02:13:05.807Z,100451.03
2022-09-26T02:15:35.760Z,100442.94
2022-09-26T02:18:13.493Z,100435.56
2022-09-26T02:20:48.755Z,100434.69
2022-09-26T02:23:16.553Z,100432.97
2022-09-26T02:25:44.519Z,100428.34
2022-09-26T02:28:14.252Z,100415.59
2022-09-26T02:30:45.750Z,100412.69
2022-09-26T02:33:16.260Z,100412.88
2022-09-26T02:35:57.533Z,100404.97
2022-09-26T02:38:30.746Z,100400.13
2022-09-26T02:41:29.636Z,100397.22
2022-09-26T02:44:18.923Z,100387.25
2022-09-26T02:47:12.256Z,100383.63
2022-09-26T02:49:50.632Z,100383.13
2022-09-26T02:52:29.233Z,100379.50
2022-09-26T02:55:11.478Z,100366.47
2022-09-26T02:57:49.781Z,100362.84
2022-09-26T03:00:21.600Z,100361.97
2022-09-26T03:02:56.471Z,100355.47
2022-09-26T03:05:29.582Z,100352.72
2022-09-26T03:08:02.098Z,100346.34
2022-09-26T03:10:32.109Z,100334.66
2022-09-26T03:13:06.153Z,100334.31
2022-09-26T03:15:36.561Z,100333.63
2022-09-26T03:18:10.010Z,100332.41
2022-09-26T03:20:40.602Z,100322.47
2022-09-26T03:23:08.421Z,100321.75
2022-09-26T03:25:36.584Z,100310.75
2022-09-26T03:28:06.824Z,100308.00
2022-09-26T03:30:35.057Z,100301.66
2022-09-26T03:33:21.455Z,100298.19
2022-09-26T03:35:51.417Z,100301.66
2022-09-26T03:38:21.112Z,100289.09
2022-09-26T03:40:55.183Z,100293.56
2022-09-26T03:43:43.694Z,100290.09
2022-09-26T03:46:13.358Z,100285.31
2022-09-26T03:48:41.173Z,100284.59
2022-09-26T03:51:13.086Z,100280.66
2022-09-26T03:53:42.734Z,100283.59
2022-09-26T03:56:16.250Z,100276.56
2022-09-26T03:58:44.676Z,100275.50
2022-09-26T04:01:14.612Z,100263.47
2022-09-26T04:03:50.033Z,100261.75
2022-09-26T04:06:21.227Z,100251.63
2022-09-26T04:08:52.431Z,100251.97
2022-09-26T04:11:24.492Z,100237.19
2022-09-26T04:13:53.918Z,100241.13
2022-09-26T04:16:25.467Z,100233.91
2022-09-26T04:18:59.343Z,100241.13
2022-09-26T04:21:30.102Z,100240.13
2022-09-26T04:23:59.844Z,100233.06
2022-09-26T04:26:28.194Z,100221.16
2022-09-26T04:28:59.002Z,100220.00
2022-09-26T04:31:46.902Z,100213.06
2022-09-26T04:34:19.656Z,100208.44
2022-09-26T04:36:51.175Z,100201.91
2022-09-26T04:39:19.114Z,100198.47
2022-09-26T04:41:47.689Z,100197.59
2022-09-26T04:44:15.976Z,100196.78
2022-09-26T04:46:44.434Z,100193.16
2022-09-26T04:49:12.892Z,100190.41
2022-09-26T04:51:40.851Z,100188.69
2022-09-26T04:54:09.951Z,100179.41
2022-09-26T04:56:40.150Z,100174.09
2022-09-26T04:59:09.299Z,100164.13
2022-09-26T05:01:46.319Z,100156.03
2022-09-26T05:04:21.802Z,100159.81
2022-09-26T05:06:51.800Z,100155.50
2022-09-26T05:09:32.819Z,100147.94
2022-09-26T05:12:07.011Z,100152.75
2022-09-26T05:14:36.240Z,100148.31
2022-09-26T05:17:06.036Z,100141.94
2022-09-26T05:19:34.675Z,100142.97
2022-09-26T05:22:22.709Z,100143.16
2022-09-26T05:25:09.656Z,100134.72
2022-09-26T05:27:38.862Z,100136.09
2022-09-26T05:30:08.150Z,100135.06
2022-09-26T05:32:36.045Z,100121.47
2022-09-26T05:35:05.612Z,100122.34
2022-09-26T05:37:37.456Z,100118.06
2022-09-26T05:40:24.711Z,100115.13
2022-09-26T05:43:00.317Z,100116.50
2022-09-26T05:45:28.378Z,100112.75
2022-09-26T05:47:56.097Z,100113.75
2022-09-26T05:50:24.628Z,100113.94
2022-09-26T05:52:52.707Z,100109.28
2022-09-26T05:55:26.810Z,100106.53
2022-09-26T05:58:03.585Z,100102.06
2022-09-26T06:00:51.581Z,100107.72
2022-09-26T06:03:19.922Z,100107.56
2022-09-26T06:06:10.374Z,100100.19
2022-09-26T06:08:39.973Z,100092.81
2022-09-26T06:11:33.050Z,100088.34
2022-09-26T06:14:01.472Z,100088.34
2022-09-26T06:16:29.932Z,100072.69
2022-09-26T06:18:58.415Z,100076.31
2022-09-26T06:21:26.231Z,100063.59
2022-09-26T06:24:06.173Z,100065.31
2022-09-26T06:26:35.730Z,100061.56
2022-09-26T06:29:04.487Z,100063.44
2022-09-26T06:31:36.033Z,100058.09
2022-09-26T06:34:13.365Z,100050.56
2022-09-26T06:37:07.226Z,100045.22
2022-09-26T06:39:37.018Z,100046.78
2022-09-26T06:42:08.317Z,100045.75
2022-09-26T06:44:49.298Z,100040.75
2022-09-26T06:47:26.187Z,100023.94
2022-09-26T06:50:14.591Z,100029.59
2022-09-26T06:52:47.256Z,100028.72
2022-09-26T06:55:15.808Z,100018.78
2022-09-26T06:57:46.334Z,100018.28
2022-09-26T07:00:16.749Z,100014.50
2022-09-26T07:03:05.605Z,100016.38
2022-09-26T07:05:45.362Z,100007.94
2022-09-26T07:08:13.881Z,100005.03
2022-09-26T07:10:41.707Z,100008.63
2022-09-26T07:13:17.098Z,100001.25
2022-09-26T07:15:46.643Z,100000.22
2022-09-26T07:18:36.472Z,100002.97
2022-09-26T07:21:32.106Z,99998.34
2022-09-26T07:24:14.158Z,99992.66
2022-09-26T07:26:42.934Z,99994.19
2022-09-26T07:29:12.486Z,99989.38
2022-09-26T07:31:40.615Z,99984.91
2022-09-26T07:34:08.896Z,99980.97
2022-09-26T07:36:40.762Z,99980.78
2022-09-26T07:39:10.231Z,99976.16
2022-09-26T07:41:38.809Z,99981.50
2022-09-26T07:47:14.846Z,99969.13
2022-09-26T07:50:00.574Z,99960.16
2022-09-26T07:52:58.138Z,99962.03
2022-09-26T07:56:05.737Z,99963.63
2022-09-26T07:58:57.481Z,99966.38
2022-09-26T08:01:45.309Z,99960.72
2022-09-26T08:04:33.116Z,99957.78
2022-09-26T08:07:02.655Z,99954.19
2022-09-26T08:09:31.305Z,99950.56
2022-09-26T08:12:25.469Z,99942.50
2022-09-26T08:15:12.215Z,99945.25
2022-09-26T08:17:45.742Z,99949.88
2022-09-26T08:20:14.955Z,99950.75
2022-09-26T08:22:43.181Z,99946.25
2022-09-26T08:25:13.277Z,99952.75
2022-09-26T08:27:59.503Z,99946.63
2022-09-26T08:30:31.466Z,99945.75
2022-09-26T08:33:02.098Z,99944.03
2022-09-26T08:35:38.582Z,99936.66
2022-09-26T08:38:38.844Z,99942.66
2022-09-26T08:41:56.171Z,99939.72
2022-09-26T08:44:48.501Z,99937.84
2022-09-26T08:47:48.836Z,99929.94
2022-09-26T08:50:49.023Z,99929.06
2022-09-26T08:53:19.859Z,99929.44
2022-09-26T08:55:55.023Z,99923.94
2022-09-26T08:58:29.099Z,99930.31
2022-09-26T09:01:03.326Z,99928.59
2022-09-26T09:03:46.561Z,99919.66
2022-09-26T09:06:16.977Z,99928.94
2022-09-26T09:08:50.134Z,99911.56
2022-09-26T09:11:51.525Z,99913.47
2022-09-26T09:14:41.690Z,99912.59
2022-09-26T09:17:40.248Z,99908.34
2022-09-26T09:20:22.403Z,99897.53
2022-09-26T09:23:34.899Z,99896.50
2022-09-26T09:29:18.712Z,99895.81
2022-09-26T09:32:04.778Z,99887.25
2022-09-26T09:34:53.946Z,99887.03
2022-09-26T09:37:52.540Z,99879.00
2022-09-26T09:40:39.127Z,99879.84
2022-09-26T09:43:14.533Z,99877.28
2022-09-26T09:45:47.933Z,99880.88
2022-09-26T09:48:16.775Z,99873.84
2022-09-26T09:50:54.637Z,99870.91
2022-09-26T09:53:39.308Z,99869.38
2022-09-26T09:56:19.166Z,99851.16
2022-09-26T09:59:03.642Z,99858.38
2022-09-26T10:01:39.125Z,99839.31
2022-09-26T10:04:21.076Z,99843.09
2022-09-26T10:06:50.557Z,99834.84
2022-09-26T10:09:36.428Z,99832.78
2022-09-26T10:12:30.714Z,99818.13
2022-09-26T10:15:20.645Z,99810.84
2022-09-26T10:18:27.335Z,99807.75
2022-09-26T10:21:16.257Z,99801.41
2022-09-26T10:23:47.715Z,99801.56
2022-09-26T10:26:34.841Z,99794.00
2022-09-26T10:29:08.843Z,99796.59
2022-09-26T10:31:42.332Z,99782.41
2022-09-26T10:34:27.530Z,99784.22
2022-09-26T10:36:56.868Z,99764.66
2022-09-26T10:39:47.848Z,99764.75
2022-09-26T10:42:18.790Z,99752.81
2022-09-26T10:44:49.239Z,99755.84
2022-09-26T10:47:25.807Z,99755.69
2022-09-26T10:50:32.481Z,99745.91
2022-09-26T10:53:41.779Z,99741.09
2022-09-26T10:56:14.007Z,99742.47
2022-09-26T10:58:44.842Z,99739.72
2022-09-26T11:01:23.308Z,99738.13
2022-09-26T11:03:52.179Z,99736.25
2022-09-26T11:06:28.426Z,99736.53
2022-09-26T11:09:05.650Z,99728.97
2022-09-26T11:12:26.273Z,99717.66
2022-09-26T11:14:59.107Z,99715.53
2022-09-26T11:17:45.254Z,99702.13
2022-09-26T11:20:21.962Z,99704.31
2022-09-26T11:22:58.323Z,99700.22
2022-09-26T11:25:31.328Z,99692.44
2022-09-26T11:28:06.023Z,99695.03
2022-09-26T11:30:58.827Z,99692.56
2022-09-26T11:33:30.310Z,99679.31
2022-09-26T11:36:39.613Z,99684.47
2022-09-26T11:39:18.974Z,99671.38
2022-09-26T11:42:03.905Z,99679.06
2022-09-26T11:44:44.903Z,99662.41
2022-09-26T11:48:00.743Z,99652.25
2022-09-26T11:50:57.463Z,99641.03
2022-09-26T11:53:51.838Z,99645.34
2022-09-26T11:56:51.431Z,99643.44
2022-09-26T11:59:36.333Z,99640.13
2022-09-26T12:02:23.670Z,99629.59
2022-09-26T12:05:02.896Z,99625.81
2022-09-26T12:07:43.570Z,99630.75
2022-09-26T12:10:25.221Z,99632.28
2022-09-26T12:13:11.134Z,99627.47
2022-09-26T12:15:48.317Z,99619.03
2022-09-26T12:18:24.167Z,99616.06
2022-09-26T12:21:06.109Z,99610.00
2022-09-26T12:23:41.778Z,99615.50
2022-09-26T12:26:19.949Z,99598.81
2022-09-26T12:29:13.109Z,99595.03
2022-09-26T12:31:50.694Z,99594.78
2022-09-26T12:34:32.828Z,99596.94
2022-09-26T12:37:14.241Z,99593.97
2022-09-26T12:40:10.281Z,99592.91
2022-09-26T12:42:53.418Z,99591.03
2022-09-26T12:45:42.240Z,99585.50
2022-09-26T12:48:27.272Z,99585.25
2022-09-26T12:51:08.184Z,99588.84
2022-09-26T12:53:53.712Z,99600.03
2022-09-26T12:56:34.284Z,99596.63
2022-09-26T12:59:17.572Z,99601.44
2022-09-26T13:01:58.544Z,99605.44
2022-09-26T13:04:41.825Z,99594.63
2022-09-26T13:07:20.978Z,99592.06
2022-09-26T13:10:18.616Z,99586.94
2022-09-26T13:13:07.090Z,99586.44
2022-09-26T13:15:44.782Z,99582.16
2022-09-26T13:18:20.913Z,99574.97
2022-09-26T13:20:55.959Z,99576.22
2022-09-26T13:23:30.375Z,99574.69
2022-09-26T13:26:02.717Z,99572.28
2022-09-26T13:28:38.542Z,99565.28
2022-09-26T13:31:14.850Z,99558.94
2022-09-26T13:33:49.360Z,99559.97
2022-09-26T13:36:21.561Z,99556.72
2022-09-26T13:38:58.078Z,99552.47
2022-09-26T13:41:41.990Z,99548.88
2022-09-26T13:44:23.497Z,99540.81
2022-09-26T13:47:03.497Z,99548.38
2022-09-26T13:49:44.510Z,99540.31
2022-09-26T13:52:28.366Z,99539.44
2022-09-26T13:55:00.431Z,99544.47
2022-09-26T13:57:33.379Z,99537.44
2022-09-26T14:00:08.020Z,99536.31
2022-09-26T14:02:35.872Z,99526.53
2022-09-26T14:05:30.097Z,99535.28
2022-09-26T14:08:15.284Z,99538.53
2022-09-26T14:10:53.089Z,99532.19
2022-09-26T14:13:34.509Z,99535.78
2022-09-26T14:16:05.634Z,99529.63
2022-09-26T14:18:57.893Z,99526.22
2022-09-26T14:21:37.230Z,99519.69
2022-09-26T14:24:28.731Z,99512.66
2022-09-26T14:27:25.285Z,99513.50
2022-09-26T14:29:58.911Z,99506.47
2022-09-26T14:32:32.793Z,99502.69
2022-09-26T14:35:02.889Z,99499.28
2022-09-26T14:37:39.853Z,99496.34
2022-09-26T14:40:20.539Z,99487.25
2022-09-26T14:43:12.846Z,99482.97
2022-09-26T14:45:51.083Z,99484.03
2022-09-26T14:48:33.238Z,99476.59
2022-09-26T14:51:04.999Z,99468.75
2022-09-26T14:53:39.296Z,99453.81
2022-09-26T14:56:11.659Z,99461.19
2022-09-26T14:58:51.438Z,99449.53
2022-09-26T15:01:29.427Z,99450.56
2022-09-26T15:04:03.093Z,99441.63
2022-09-26T15:06:37.101Z,99441.81
2022-09-26T15:09:10.582Z,99440.16
2022-09-26T15:11:44.512Z,99448.56
2022-09-26T15:14:22.534Z,99433.13
2022-09-26T15:16:54.993Z,99427.13
2022-09-26T15:19:29.545Z,99430.28
2022-09-26T15:22:01.291Z,99425.81
2022-09-26T15:24:33.215Z,99425.13
2022-09-26T15:27:08.514Z,99429.09
2022-09-26T15:29:37.042Z,99429.31
2022-09-26T15:32:06.812Z,99417.66
2022-09-26T15:34:39.703Z,99419.53
2022-09-26T15:37:10.517Z,99403.81
2022-09-26T15:39:41.958Z,99402.28
2022-09-26T15:42:38.557Z,99409.09
2022-09-26T15:45:23.204Z,99396.59
2022-09-26T15:47:51.254Z,99396.28
2022-09-26T15:50:24.537Z,99391.47
2022-09-26T15:52:57.179Z,99389.75
2022-09-26T15:55:29.155Z,99402.81
2022-09-26T15:58:01.591Z,99380.00
2022-09-26T16:00:33.488Z,99379.16
2022-09-26T16:03:20.622Z,99382.94
2022-09-26T16:05:50.215Z,99390.16
2022-09-26T16:08:23.583Z,99381.69
2022-09-26T16:10:56.306Z,99377.25
2022-09-26T16:13:26.524Z,99376.78
2022-09-26T16:16:03.919Z,99376.41
2022-09-26T16:18:39.582Z,99367.50
2022-09-26T16:21:21.101Z,99366.66
2022-09-26T16:23:51.463Z,99370.63
2022-09-26T16:26:40.524Z,99358.59
2022-09-26T16:29:09.242Z,99350.06
2022-09-26T16:31:44.313Z,99349.03
2022-09-26T16:34:22.256Z,99344.59
2022-09-26T16:36:52.089Z,99341.16
2022-09-26T16:39:23.179Z,99334.81
2022-09-26T16:42:01.674Z,99333.78
2022-09-26T16:44:36.008Z,99331.22
2022-09-26T16:47:07.318Z,99329.50
2022-09-26T16:49:46.748Z,99319.19
2022-09-26T16:52:34.830Z,99323.16
2022-09-26T16:55:05.940Z,99323.34
2022-09-26T16:57:36.626Z,99314.25
2022-09-26T17:00:35.663Z,99316.16
2022-09-26T17:03:04.279Z,99305.72
2022-09-26T17:05:32.164Z,99310.19
2022-09-26T17:08:01.699Z,99297.13
2022-09-26T17:10:29.709Z,99304.69
2022-09-26T17:13:02.519Z,99306.41
2022-09-26T17:15:31.047Z,99297.69
2022-09-26T17:18:00.948Z,99300.59
2022-09-26T17:20:29.536Z,99297.31
2022-09-26T17:22:57.628Z,99296.47
2022-09-26T17:25:27.912Z,99292.50
2022-09-26T17:27:59.880Z,99288.22
2022-09-26T17:30:27.941Z,99287.53
2022-09-26T17:32:56.002Z,99285.66
2022-09-26T17:35:26.618Z,99282.53
2022-09-26T17:37:55.451Z,99270.88
2022-09-26T17:40:27.279Z,99274.50
2022-09-26T17:42:57.133Z,99270.22
2022-09-26T17:45:30.288Z,99267.09
2022-09-26T17:48:00.456Z,99269.84
2022-09-26T17:50:31.375Z,99274.50
2022-09-26T17:53:01.955Z,99269.00
2022-09-26T17:55:32.157Z,99269.84
2022-09-26T17:58:00.328Z,99263.50
2022-09-26T18:00:33.428Z,99260.59
2022-09-26T18:03:04.182Z,99258.03
2022-09-26T18:05:35.182Z,99258.03
2022-09-26T18:08:10.215Z,99268.81
2022-09-26T18:10:45.557Z,99256.13
2022-09-26T18:13:16.826Z,99260.75
2022-09-26T18:15:44.874Z,99255.44
2022-09-26T18:18:16.114Z,99247.03
2022-09-26T18:20:45.509Z,99249.97
2022-09-26T18:23:20.906Z,99245.16
2022-09-26T18:25:52.986Z,99234.34
2022-09-26T18:28:24.168Z,99247.41
2022-09-26T18:30:58.054Z,99241.72
2022-09-26T18:33:28.927Z,99245.69
2022-09-26T18:35:58.289Z,99241.28
2022-09-26T18:38:26.335Z,99243.16
2022-09-26T18:40:58.689Z,99246.75
2022-09-26T18:43:37.637Z,99230.66
2022-09-26T18:46:09.903Z,99224.66
2022-09-26T18:48:38.267Z,99236.50
2022-09-26T18:51:06.432Z,99234.78
2022-09-26T18:53:37.281Z,99239.44
2022-09-26T18:56:25.053Z,99245.13
2022-09-26T18:58:53.514Z,99240.00
2022-09-26T19:01:28.122Z,99239.81
2022-09-26T19:03:59.261Z,99237.25
2022-09-26T19:06:31.825Z,99234.53
2022-09-26T19:09:02.450Z,99236.78
2022-09-26T19:11:34.564Z,99233.84
2022-09-26T19:14:13.151Z,99225.63
2022-09-26T19:16:41.256Z,99226.66
2022-09-26T19:19:09.811Z,99224.97
2022-09-26T19:21:40.857Z,99223.91
2022-09-26T19:24:20.088Z,99224.75
2022-09-26T19:26:53.256Z,99234.03
2022-09-26T19:29:29.687Z,99227.50
2022-09-26T19:31:58.279Z,99225.97
2022-09-26T19:34:30.377Z,99224.97
2022-09-26T19:37:01.386Z,99217.75
2022-09-26T19:39:29.417Z,99220.50
2022-09-26T19:41:58.764Z,99223.91
2022-09-26T19:44:26.786Z,99208.50
2022-09-26T19:46:54.812Z,99214.00
2022-09-26T19:49:24.251Z,99211.03
2022-09-26T19:51:52.198Z,99205.75
2022-09-26T19:54:20.322Z,99201.09
2022-09-26T19:56:48.609Z,99198.16
2022-09-26T19:59:20.097Z,99199.03
2022-09-26T20:01:50.290Z,99194.78
2022-09-26T20:04:20.353Z,99193.72
2022-09-26T20:06:48.437Z,99193.03
2022-09-26T20:09:18.933Z,99190.28
2022-09-26T20:11:47.194Z,99184.13
2022-09-26T20:14:26.737Z,99189.81
2022-09-26T20:16:58.938Z,99193.59
2022-09-26T20:19:35.848Z,99193.78
2022-09-26T20:22:07.422Z,99192.09
2022-09-26T20:24:39.507Z,99192.09
2022-09-26T20:27:11.825Z,99199.84
2022-09-26T20:29:57.002Z,99200.88
2022-09-26T20:32:27.130Z,99190.75
2022-09-26T20:34:56.335Z,99180.81
2022-09-26T20:37:24.359Z,99180.81
2022-09-26T20:39:52.772Z,99180.81
2022-09-26T20:42:22.102Z,99181.00
2022-09-26T20:44:51.057Z,99181.84
2022-09-26T20:47:21.194Z,99184.41
2022-09-26T20:49:55.289Z,99184.41
2022-09-26T20:52:26.794Z,99188.00
2022-09-26T20:54:56.056Z,99180.81
2022-09-26T20:57:24.467Z,99188.00
2022-09-26T20:59:53.167Z,99183.38
2022-09-26T21:02:30.855Z,99183.88
2022-09-26T21:05:01.985Z,99180.44
2022-09-26T21:07:32.784Z,99184.03
2022-09-26T21:10:00.733Z,99177.88
2022-09-26T21:12:28.685Z,99177.88
2022-09-26T21:14:56.559Z,99175.13
2022-09-26T21:17:28.005Z,99167.75
2022-09-26T21:19:56.874Z,99171.53
2022-09-26T21:22:46.170Z,99172.41
2022-09-26T21:25:19.112Z,99165.00
2022-09-26T21:27:48.325Z,99162.63
2022-09-26T21:30:17.334Z,99162.44
2022-09-26T21:32:49.361Z,99165.19
2022-09-26T21:35:19.429Z,99162.81
2022-09-26T21:37:52.236Z,99158.84
2022-09-26T21:40:21.334Z,99154.84
2022-09-26T21:42:51.852Z,99154.13
2022-09-26T21:45:26.549Z,99153.72
2022-09-26T21:47:56.325Z,99152.06
2022-09-26T21:50:26.301Z,99154.97
2022-09-26T21:53:01.508Z,99153.09
2022-09-26T21:55:34.482Z,99150.53
2022-09-26T21:58:04.122Z,99140.16
2022-09-26T22:00:32.047Z,99145.81
2022-09-26T22:03:00.276Z,99137.34
2022-09-26T22:05:28.440Z,99141.16
2022-09-26T22:07:58.337Z,99147.28
2022-09-26T22:10:27.045Z,99139.47
2022-09-26T22:12:54.980Z,99144.28
2022-09-26T22:15:22.894Z,99142.38
2022-09-26T22:17:50.950Z,99141.53
2022-09-26T22:20:18.971Z,99147.03
2022-09-26T22:22:46.915Z,99137.09
2022-09-26T22:25:16.381Z,99139.66
2022-09-26T22:27:44.652Z,99137.25
2022-09-26T22:30:14.145Z,99139.81
2022-09-26T22:32:42.046Z,99134.53
2022-09-26T22:35:10.273Z,99136.41
2022-09-26T22:37:38.929Z,99132.81
2022-09-26T22:40:08.213Z,99130.06
2022-09-26T22:42:37.766Z,99137.44
2022-09-26T22:45:06.237Z,99135.78
2022-09-26T22:47:34.131Z,99134.06
2022-09-26T22:50:01.979Z,99134.91
2022-09-26T22:52:29.924Z,99140.59
2022-09-26T22:54:57.835Z,99137.84
2022-09-26T22:57:26.237Z,99137.84
2022-09-26T22:59:55.497Z,99137.84
2022-09-26T23:02:23.450Z,99136.31
2022-09-26T23:04:51.374Z,99142.84
2022-09-26T23:07:21.127Z,99150.22
2022-09-26T23:09:49.052Z,99149.56
2022-09-26T23:12:16.941Z,99154.38
2022-09-26T23:14:44.920Z,99140.66
2022-09-26T23:17:14.500Z,99142.56
2022-09-26T23:19:42.437Z,99147.38
2022-09-26T23:22:10.352Z,99141.03
2022-09-26T23:24:38.276Z,99141.03
2022-09-26T23:27:06.195Z,99140.16
2022-09-26T23:29:34.089Z,99143.94
2022-09-26T23:32:02.413Z,99152.19
2022-09-26T23:34:31.761Z,99148.41
2022-09-26T23:36:59.708Z,99151.31
2022-09-26T23:39:27.602Z,99156.81
2022-09-26T23:41:55.572Z,99154.06
2022-09-26T23:44:23.461Z,99162.28
2022-09-26T23:46:51.655Z,99164.19
2022-09-26T23:49:19.527Z,99155.94
2022-09-26T23:51:48.880Z,99157.66
2022-09-26T23:54:16.772Z,99163.34
2022-09-26T23:56:44.707Z,99168.00
2022-09-26T23:59:12.626Z,99169.03
